sensor_id;sensor_type;location;lat;lon;timestamp;P1;durP1;ratioP1;P2;durP2;ratioP2
38262;SDS011;24054;50.128;19.730;2022-12-07T00:01:27;6.38;;;4.50;;
38262;SDS011;24054;50.128;19.730;2022-12-07T00:03:56;6.70;;;4.40;;
38262;SDS011;24054;50.128;19.730;2022-12-07T00:06:29;8.73;;;4.68;;
38262;SDS011;24054;50.128;19.730;2022-12-07T00:08:57;7.83;;;4.23;;
38262;SDS011;24054;50.128;19.730;2022-12-07T00:11:25;7.35;;;4.38;;
38262;SDS011;24054;50.128;19.730;2022-12-07T00:13:53;8.93;;;4.40;;
38262;SDS011;24054;50.128;19.730;2022-12-07T00:16:23;8.48;;;4.53;;
38262;SDS011;24054;50.128;19.730;2022-12-07T00:18:51;7.13;;;4.10;;
38262;SDS011;24054;50.128;19.730;2022-12-07T00:21:19;6.53;;;4.10;;
38262;SDS011;24054;50.128;19.730;2022-12-07T00:23:48;7.75;;;4.30;;
38262;SDS011;24054;50.128;19.730;2022-12-07T00:26:17;7.88;;;4.65;;
38262;SDS011;24054;50.128;19.730;2022-12-07T00:28:45;7.45;;;4.35;;
38262;SDS011;24054;50.128;19.730;2022-12-07T00:31:13;7.80;;;4.00;;
38262;SDS011;24054;50.128;19.730;2022-12-07T00:33:43;9.13;;;4.35;;
38262;SDS011;24054;50.128;19.730;2022-12-07T00:36:11;5.53;;;4.13;;
38262;SDS011;24054;50.128;19.730;2022-12-07T00:38:39;5.95;;;3.92;;
38262;SDS011;24054;50.128;19.730;2022-12-07T00:41:08;7.07;;;3.85;;
38262;SDS011;24054;50.128;19.730;2022-12-07T00:43:37;5.70;;;3.95;;
38262;SDS011;24054;50.128;19.730;2022-12-07T00:46:07;7.53;;;4.07;;
38262;SDS011;24054;50.128;19.730;2022-12-07T00:48:35;5.80;;;3.90;;
38262;SDS011;24054;50.128;19.730;2022-12-07T00:51:04;4.80;;;3.80;;
38262;SDS011;24054;50.128;19.730;2022-12-07T00:53:31;5.97;;;4.07;;
38262;SDS011;24054;50.128;19.730;2022-12-07T00:56:04;6.72;;;4.35;;
38262;SDS011;24054;50.128;19.730;2022-12-07T00:58:32;6.07;;;3.63;;
38262;SDS011;24054;50.128;19.730;2022-12-07T01:00:59;7.20;;;3.53;;
38262;SDS011;24054;50.128;19.730;2022-12-07T01:03:27;4.82;;;3.50;;
38262;SDS011;24054;50.128;19.730;2022-12-07T01:05:54;5.55;;;3.75;;
38262;SDS011;24054;50.128;19.730;2022-12-07T01:08:24;5.68;;;3.80;;
38262;SDS011;24054;50.128;19.730;2022-12-07T01:10:57;6.28;;;3.67;;
38262;SDS011;24054;50.128;19.730;2022-12-07T01:13:24;5.70;;;3.53;;
38262;SDS011;24054;50.128;19.730;2022-12-07T01:15:55;5.75;;;3.50;;
38262;SDS011;24054;50.128;19.730;2022-12-07T01:18:24;6.15;;;3.60;;
38262;SDS011;24054;50.128;19.730;2022-12-07T01:20:58;5.75;;;3.40;;
38262;SDS011;24054;50.128;19.730;2022-12-07T01:23:28;7.53;;;3.55;;
38262;SDS011;24054;50.128;19.730;2022-12-07T01:25:55;5.82;;;3.58;;
38262;SDS011;24054;50.128;19.730;2022-12-07T01:28:22;6.35;;;3.60;;
38262;SDS011;24054;50.128;19.730;2022-12-07T01:30:59;5.20;;;3.65;;
38262;SDS011;24054;50.128;19.730;2022-12-07T01:33:31;7.07;;;3.38;;
38262;SDS011;24054;50.128;19.730;2022-12-07T01:36:02;5.85;;;3.63;;
38262;SDS011;24054;50.128;19.730;2022-12-07T01:38:32;5.90;;;3.70;;
38262;SDS011;24054;50.128;19.730;2022-12-07T01:41:00;4.68;;;3.35;;
38262;SDS011;24054;50.128;19.730;2022-12-07T01:43:28;5.45;;;3.55;;
38262;SDS011;24054;50.128;19.730;2022-12-07T01:45:57;6.97;;;3.85;;
38262;SDS011;24054;50.128;19.730;2022-12-07T01:48:26;4.35;;;3.13;;
38262;SDS011;24054;50.128;19.730;2022-12-07T01:50:59;5.13;;;3.55;;
38262;SDS011;24054;50.128;19.730;2022-12-07T01:53:28;4.97;;;3.40;;
38262;SDS011;24054;50.128;19.730;2022-12-07T01:55:57;6.60;;;3.70;;
38262;SDS011;24054;50.128;19.730;2022-12-07T01:58:25;4.82;;;3.20;;
38262;SDS011;24054;50.128;19.730;2022-12-07T02:00:53;6.75;;;3.25;;
38262;SDS011;24054;50.128;19.730;2022-12-07T02:03:22;7.10;;;3.65;;
38262;SDS011;24054;50.128;19.730;2022-12-07T02:05:53;4.78;;;3.60;;
38262;SDS011;24054;50.128;19.730;2022-12-07T02:08:21;4.65;;;3.15;;
38262;SDS011;24054;50.128;19.730;2022-12-07T02:10:48;7.18;;;3.78;;
38262;SDS011;24054;50.128;19.730;2022-12-07T02:13:18;6.07;;;3.30;;
38262;SDS011;24054;50.128;19.730;2022-12-07T02:15:59;5.97;;;3.47;;
38262;SDS011;24054;50.128;19.730;2022-12-07T02:18:47;4.75;;;2.90;;
38262;SDS011;24054;50.128;19.730;2022-12-07T02:21:22;5.75;;;3.47;;
38262;SDS011;24054;50.128;19.730;2022-12-07T02:24:02;4.68;;;3.17;;
38262;SDS011;24054;50.128;19.730;2022-12-07T02:26:55;4.93;;;3.00;;
38262;SDS011;24054;50.128;19.730;2022-12-07T02:29:47;4.38;;;3.17;;
38262;SDS011;24054;50.128;19.730;2022-12-07T02:32:19;3.80;;;2.75;;
38262;SDS011;24054;50.128;19.730;2022-12-07T02:34:51;4.30;;;2.88;;
38262;SDS011;24054;50.128;19.730;2022-12-07T02:37:28;5.72;;;3.05;;
38262;SDS011;24054;50.128;19.730;2022-12-07T02:40:06;4.45;;;2.88;;
38262;SDS011;24054;50.128;19.730;2022-12-07T02:42:40;4.25;;;3.00;;
38262;SDS011;24054;50.128;19.730;2022-12-07T02:45:13;4.32;;;2.95;;
38262;SDS011;24054;50.128;19.730;2022-12-07T02:47:42;5.55;;;3.17;;
38262;SDS011;24054;50.128;19.730;2022-12-07T02:50:10;4.55;;;2.72;;
38262;SDS011;24054;50.128;19.730;2022-12-07T02:52:38;3.90;;;3.00;;
38262;SDS011;24054;50.128;19.730;2022-12-07T02:55:05;4.70;;;3.28;;
38262;SDS011;24054;50.128;19.730;2022-12-07T02:57:38;4.18;;;3.05;;
38262;SDS011;24054;50.128;19.730;2022-12-07T03:00:17;5.57;;;3.00;;
38262;SDS011;24054;50.128;19.730;2022-12-07T03:02:48;3.45;;;2.78;;
38262;SDS011;24054;50.128;19.730;2022-12-07T03:05:31;5.72;;;3.20;;
38262;SDS011;24054;50.128;19.730;2022-12-07T03:08:08;4.68;;;3.00;;
38262;SDS011;24054;50.128;19.730;2022-12-07T03:10:40;4.85;;;3.05;;
38262;SDS011;24054;50.128;19.730;2022-12-07T03:13:18;5.93;;;3.30;;
38262;SDS011;24054;50.128;19.730;2022-12-07T03:15:53;4.57;;;3.00;;
38262;SDS011;24054;50.128;19.730;2022-12-07T03:18:24;6.00;;;2.78;;
38262;SDS011;24054;50.128;19.730;2022-12-07T03:20:57;5.10;;;3.22;;
38262;SDS011;24054;50.128;19.730;2022-12-07T03:23:28;4.00;;;3.28;;
38262;SDS011;24054;50.128;19.730;2022-12-07T03:26:00;4.65;;;2.97;;
38262;SDS011;24054;50.128;19.730;2022-12-07T03:28:30;3.55;;;2.65;;
38262;SDS011;24054;50.128;19.730;2022-12-07T03:31:02;4.38;;;2.75;;
38262;SDS011;24054;50.128;19.730;2022-12-07T03:33:36;4.60;;;2.70;;
38262;SDS011;24054;50.128;19.730;2022-12-07T03:36:09;4.00;;;2.88;;
38262;SDS011;24054;50.128;19.730;2022-12-07T03:38:42;3.47;;;2.38;;
38262;SDS011;24054;50.128;19.730;2022-12-07T03:41:14;5.05;;;3.13;;
38262;SDS011;24054;50.128;19.730;2022-12-07T03:43:46;4.30;;;3.20;;
38262;SDS011;24054;50.128;19.730;2022-12-07T03:46:17;4.30;;;2.80;;
38262;SDS011;24054;50.128;19.730;2022-12-07T03:48:55;4.70;;;2.88;;
38262;SDS011;24054;50.128;19.730;2022-12-07T03:51:28;4.38;;;2.60;;
38262;SDS011;24054;50.128;19.730;2022-12-07T03:54:00;4.47;;;2.45;;
38262;SDS011;24054;50.128;19.730;2022-12-07T03:56:33;5.35;;;2.80;;
38262;SDS011;24054;50.128;19.730;2022-12-07T03:59:02;4.22;;;3.00;;
38262;SDS011;24054;50.128;19.730;2022-12-07T04:01:31;4.03;;;2.97;;
38262;SDS011;24054;50.128;19.730;2022-12-07T04:03:58;4.63;;;2.60;;
38262;SDS011;24054;50.128;19.730;2022-12-07T04:06:25;3.58;;;2.50;;
38262;SDS011;24054;50.128;19.730;2022-12-07T04:08:52;4.45;;;2.78;;
38262;SDS011;24054;50.128;19.730;2022-12-07T04:11:19;3.90;;;2.47;;
38262;SDS011;24054;50.128;19.730;2022-12-07T04:13:46;4.30;;;2.63;;
38262;SDS011;24054;50.128;19.730;2022-12-07T04:16:32;3.58;;;2.60;;
38262;SDS011;24054;50.128;19.730;2022-12-07T04:18:59;2.42;;;2.17;;
38262;SDS011;24054;50.128;19.730;2022-12-07T04:21:26;5.82;;;3.05;;
38262;SDS011;24054;50.128;19.730;2022-12-07T04:23:53;3.38;;;2.63;;
38262;SDS011;24054;50.128;19.730;2022-12-07T04:26:20;4.82;;;2.67;;
38262;SDS011;24054;50.128;19.730;2022-12-07T04:28:47;4.28;;;2.60;;
38262;SDS011;24054;50.128;19.730;2022-12-07T04:31:14;3.60;;;2.67;;
38262;SDS011;24054;50.128;19.730;2022-12-07T04:33:43;5.40;;;2.47;;
38262;SDS011;24054;50.128;19.730;2022-12-07T04:36:10;3.78;;;2.55;;
38262;SDS011;24054;50.128;19.730;2022-12-07T04:38:37;2.75;;;2.13;;
38262;SDS011;24054;50.128;19.730;2022-12-07T04:41:04;3.55;;;2.70;;
38262;SDS011;24054;50.128;19.730;2022-12-07T04:43:32;3.58;;;2.47;;
38262;SDS011;24054;50.128;19.730;2022-12-07T04:45:59;5.38;;;3.00;;
38262;SDS011;24054;50.128;19.730;2022-12-07T04:48:27;3.67;;;2.20;;
38262;SDS011;24054;50.128;19.730;2022-12-07T04:50:55;5.28;;;2.47;;
38262;SDS011;24054;50.128;19.730;2022-12-07T04:53:22;3.67;;;2.67;;
38262;SDS011;24054;50.128;19.730;2022-12-07T04:55:49;3.85;;;2.78;;
38262;SDS011;24054;50.128;19.730;2022-12-07T04:58:17;4.15;;;2.72;;
38262;SDS011;24054;50.128;19.730;2022-12-07T05:00:43;3.65;;;2.72;;
38262;SDS011;24054;50.128;19.730;2022-12-07T05:03:10;4.60;;;3.00;;
38262;SDS011;24054;50.128;19.730;2022-12-07T05:05:39;3.85;;;2.70;;
38262;SDS011;24054;50.128;19.730;2022-12-07T05:08:08;3.67;;;2.47;;
38262;SDS011;24054;50.128;19.730;2022-12-07T05:10:35;4.13;;;3.13;;
38262;SDS011;24054;50.128;19.730;2022-12-07T05:13:02;4.35;;;2.72;;
38262;SDS011;24054;50.128;19.730;2022-12-07T05:15:29;3.90;;;2.70;;
38262;SDS011;24054;50.128;19.730;2022-12-07T05:17:56;3.90;;;2.92;;
38262;SDS011;24054;50.128;19.730;2022-12-07T05:20:23;4.20;;;2.40;;
38262;SDS011;24054;50.128;19.730;2022-12-07T05:22:50;3.70;;;2.90;;
38262;SDS011;24054;50.128;19.730;2022-12-07T05:25:18;4.13;;;2.58;;
38262;SDS011;24054;50.128;19.730;2022-12-07T05:27:45;3.53;;;2.50;;
38262;SDS011;24054;50.128;19.730;2022-12-07T05:30:13;2.97;;;2.65;;
38262;SDS011;24054;50.128;19.730;2022-12-07T05:32:40;3.97;;;2.60;;
38262;SDS011;24054;50.128;19.730;2022-12-07T05:35:07;3.72;;;2.83;;
38262;SDS011;24054;50.128;19.730;2022-12-07T05:37:35;3.72;;;2.80;;
38262;SDS011;24054;50.128;19.730;2022-12-07T05:40:02;4.03;;;2.83;;
38262;SDS011;24054;50.128;19.730;2022-12-07T05:42:31;4.30;;;2.95;;
38262;SDS011;24054;50.128;19.730;2022-12-07T05:44:58;3.65;;;2.78;;
38262;SDS011;24054;50.128;19.730;2022-12-07T05:47:26;3.65;;;2.63;;
38262;SDS011;24054;50.128;19.730;2022-12-07T05:49:53;4.03;;;2.60;;
38262;SDS011;24054;50.128;19.730;2022-12-07T05:52:20;5.70;;;3.60;;
38262;SDS011;24054;50.128;19.730;2022-12-07T05:54:47;3.65;;;2.80;;
38262;SDS011;24054;50.128;19.730;2022-12-07T05:57:14;4.13;;;3.10;;
38262;SDS011;24054;50.128;19.730;2022-12-07T05:59:43;3.72;;;2.90;;
38262;SDS011;24054;50.128;19.730;2022-12-07T06:02:09;4.55;;;2.97;;
38262;SDS011;24054;50.128;19.730;2022-12-07T06:04:38;4.32;;;2.97;;
38262;SDS011;24054;50.128;19.730;2022-12-07T06:07:06;4.22;;;2.80;;
38262;SDS011;24054;50.128;19.730;2022-12-07T06:09:34;3.78;;;3.00;;
38262;SDS011;24054;50.128;19.730;2022-12-07T06:12:02;5.68;;;2.90;;
38262;SDS011;24054;50.128;19.730;2022-12-07T06:14:48;3.42;;;2.70;;
38262;SDS011;24054;50.128;19.730;2022-12-07T06:17:15;3.47;;;2.95;;
38262;SDS011;24054;50.128;19.730;2022-12-07T06:19:42;3.90;;;2.92;;
38262;SDS011;24054;50.128;19.730;2022-12-07T06:22:10;3.85;;;2.75;;
38262;SDS011;24054;50.128;19.730;2022-12-07T06:24:37;3.40;;;2.88;;
38262;SDS011;24054;50.128;19.730;2022-12-07T06:27:05;3.70;;;2.90;;
38262;SDS011;24054;50.128;19.730;2022-12-07T06:29:32;4.05;;;2.97;;
38262;SDS011;24054;50.128;19.730;2022-12-07T06:32:01;4.35;;;2.95;;
38262;SDS011;24054;50.128;19.730;2022-12-07T06:34:28;4.43;;;3.38;;
38262;SDS011;24054;50.128;19.730;2022-12-07T06:36:55;3.45;;;2.70;;
38262;SDS011;24054;50.128;19.730;2022-12-07T06:39:22;2.97;;;2.63;;
38262;SDS011;24054;50.128;19.730;2022-12-07T06:41:50;2.90;;;2.30;;
38262;SDS011;24054;50.128;19.730;2022-12-07T06:44:19;3.85;;;3.03;;
38262;SDS011;24054;50.128;19.730;2022-12-07T06:46:46;3.23;;;2.70;;
38262;SDS011;24054;50.128;19.730;2022-12-07T06:49:15;3.83;;;2.75;;
38262;SDS011;24054;50.128;19.730;2022-12-07T06:51:42;3.47;;;2.50;;
38262;SDS011;24054;50.128;19.730;2022-12-07T06:54:10;6.10;;;2.75;;
38262;SDS011;24054;50.128;19.730;2022-12-07T06:59:05;5.38;;;3.15;;
38262;SDS011;24054;50.128;19.730;2022-12-07T07:01:33;7.38;;;2.92;;
38262;SDS011;24054;50.128;19.730;2022-12-07T07:04:01;5.88;;;2.88;;
38262;SDS011;24054;50.128;19.730;2022-12-07T07:06:30;5.10;;;2.67;;
38262;SDS011;24054;50.128;19.730;2022-12-07T07:08:57;4.88;;;3.55;;
38262;SDS011;24054;50.128;19.730;2022-12-07T07:11:24;4.55;;;3.00;;
38262;SDS011;24054;50.128;19.730;2022-12-07T07:13:51;5.43;;;3.28;;
38262;SDS011;24054;50.128;19.730;2022-12-07T07:16:22;6.90;;;3.85;;
38262;SDS011;24054;50.128;19.730;2022-12-07T07:18:50;27.27;;;11.03;;
38262;SDS011;24054;50.128;19.730;2022-12-07T07:21:17;38.03;;;16.98;;
38262;SDS011;24054;50.128;19.730;2022-12-07T07:23:45;45.70;;;21.63;;
38262;SDS011;24054;50.128;19.730;2022-12-07T07:26:12;47.42;;;21.83;;
38262;SDS011;24054;50.128;19.730;2022-12-07T07:28:41;31.33;;;16.20;;
38262;SDS011;24054;50.128;19.730;2022-12-07T07:31:08;28.98;;;13.45;;
38262;SDS011;24054;50.128;19.730;2022-12-07T07:33:35;26.42;;;12.35;;
38262;SDS011;24054;50.128;19.730;2022-12-07T07:36:02;24.83;;;12.10;;
38262;SDS011;24054;50.128;19.730;2022-12-07T07:38:29;23.05;;;12.07;;
38262;SDS011;24054;50.128;19.730;2022-12-07T07:40:58;24.55;;;11.95;;
38262;SDS011;24054;50.128;19.730;2022-12-07T07:43:25;22.77;;;10.75;;
38262;SDS011;24054;50.128;19.730;2022-12-07T07:45:52;19.88;;;10.77;;
38262;SDS011;24054;50.128;19.730;2022-12-07T07:48:19;23.05;;;10.45;;
38262;SDS011;24054;50.128;19.730;2022-12-07T07:50:47;22.20;;;10.23;;
38262;SDS011;24054;50.128;19.730;2022-12-07T07:53:14;20.83;;;10.68;;
38262;SDS011;24054;50.128;19.730;2022-12-07T07:55:41;21.33;;;10.35;;
38262;SDS011;24054;50.128;19.730;2022-12-07T07:58:18;19.90;;;9.75;;
38262;SDS011;24054;50.128;19.730;2022-12-07T08:00:45;17.48;;;9.50;;
38262;SDS011;24054;50.128;19.730;2022-12-07T08:03:12;15.02;;;9.20;;
38262;SDS011;24054;50.128;19.730;2022-12-07T08:05:40;20.30;;;10.13;;
38262;SDS011;24054;50.128;19.730;2022-12-07T08:08:07;17.38;;;9.52;;
38262;SDS011;24054;50.128;19.730;2022-12-07T08:10:34;19.05;;;8.82;;
38262;SDS011;24054;50.128;19.730;2022-12-07T08:13:02;17.33;;;8.90;;
38262;SDS011;24054;50.128;19.730;2022-12-07T08:15:45;16.27;;;8.95;;
38262;SDS011;24054;50.128;19.730;2022-12-07T08:18:13;16.13;;;8.38;;
38262;SDS011;24054;50.128;19.730;2022-12-07T08:20:41;16.77;;;9.80;;
38262;SDS011;24054;50.128;19.730;2022-12-07T08:23:09;14.38;;;7.90;;
38262;SDS011;24054;50.128;19.730;2022-12-07T08:28:05;19.77;;;9.27;;
38262;SDS011;24054;50.128;19.730;2022-12-07T08:30:32;14.20;;;7.95;;
38262;SDS011;24054;50.128;19.730;2022-12-07T08:33:01;11.98;;;7.30;;
38262;SDS011;24054;50.128;19.730;2022-12-07T08:37:55;15.75;;;7.90;;
38262;SDS011;24054;50.128;19.730;2022-12-07T08:40:23;14.48;;;7.40;;
38262;SDS011;24054;50.128;19.730;2022-12-07T08:42:50;14.68;;;7.85;;
38262;SDS011;24054;50.128;19.730;2022-12-07T08:45:17;15.40;;;7.80;;
38262;SDS011;24054;50.128;19.730;2022-12-07T08:47:48;16.77;;;7.28;;
38262;SDS011;24054;50.128;19.730;2022-12-07T08:50:19;13.32;;;7.10;;
38262;SDS011;24054;50.128;19.730;2022-12-07T08:52:48;15.18;;;7.90;;
38262;SDS011;24054;50.128;19.730;2022-12-07T08:55:19;15.00;;;7.38;;
38262;SDS011;24054;50.128;19.730;2022-12-07T08:57:47;13.27;;;6.73;;
38262;SDS011;24054;50.128;19.730;2022-12-07T09:00:14;11.67;;;7.10;;
38262;SDS011;24054;50.128;19.730;2022-12-07T09:02:43;12.77;;;8.30;;
38262;SDS011;24054;50.128;19.730;2022-12-07T09:05:11;10.40;;;6.65;;
38262;SDS011;24054;50.128;19.730;2022-12-07T09:07:41;12.93;;;7.22;;
38262;SDS011;24054;50.128;19.730;2022-12-07T09:10:09;12.93;;;7.15;;
38262;SDS011;24054;50.128;19.730;2022-12-07T09:12:37;14.27;;;7.63;;
38262;SDS011;24054;50.128;19.730;2022-12-07T09:15:04;13.18;;;6.95;;
38262;SDS011;24054;50.128;19.730;2022-12-07T09:17:32;12.50;;;7.03;;
38262;SDS011;24054;50.128;19.730;2022-12-07T09:20:00;11.40;;;5.80;;
38262;SDS011;24054;50.128;19.730;2022-12-07T09:22:28;10.85;;;6.30;;
38262;SDS011;24054;50.128;19.730;2022-12-07T09:24:57;12.15;;;6.80;;
38262;SDS011;24054;50.128;19.730;2022-12-07T09:29:52;11.18;;;6.60;;
38262;SDS011;24054;50.128;19.730;2022-12-07T09:32:19;9.98;;;6.07;;
38262;SDS011;24054;50.128;19.730;2022-12-07T09:34:50;12.40;;;6.43;;
38262;SDS011;24054;50.128;19.730;2022-12-07T09:37:17;10.25;;;6.43;;
38262;SDS011;24054;50.128;19.730;2022-12-07T09:39:44;12.55;;;6.28;;
38262;SDS011;24054;50.128;19.730;2022-12-07T09:42:17;10.02;;;5.68;;
38262;SDS011;24054;50.128;19.730;2022-12-07T09:44:54;11.20;;;6.03;;
38262;SDS011;24054;50.128;19.730;2022-12-07T09:47:23;9.40;;;5.68;;
38262;SDS011;24054;50.128;19.730;2022-12-07T09:49:50;8.38;;;5.28;;
38262;SDS011;24054;50.128;19.730;2022-12-07T09:52:19;8.95;;;5.93;;
38262;SDS011;24054;50.128;19.730;2022-12-07T09:54:51;13.48;;;6.72;;
38262;SDS011;24054;50.128;19.730;2022-12-07T09:57:20;8.73;;;5.55;;
38262;SDS011;24054;50.128;19.730;2022-12-07T09:59:53;9.05;;;5.47;;
38262;SDS011;24054;50.128;19.730;2022-12-07T10:02:23;10.63;;;5.18;;
38262;SDS011;24054;50.128;19.730;2022-12-07T10:04:55;9.50;;;5.20;;
38262;SDS011;24054;50.128;19.730;2022-12-07T10:07:24;9.90;;;5.93;;
38262;SDS011;24054;50.128;19.730;2022-12-07T10:09:51;8.27;;;5.30;;
38262;SDS011;24054;50.128;19.730;2022-12-07T10:12:19;8.70;;;5.25;;
38262;SDS011;24054;50.128;19.730;2022-12-07T10:14:53;10.63;;;5.57;;
38262;SDS011;24054;50.128;19.730;2022-12-07T10:17:37;9.40;;;5.22;;
38262;SDS011;24054;50.128;19.730;2022-12-07T10:20:18;9.85;;;5.13;;
38262;SDS011;24054;50.128;19.730;2022-12-07T10:23:00;10.15;;;5.38;;
38262;SDS011;24054;50.128;19.730;2022-12-07T10:25:30;8.48;;;4.97;;
38262;SDS011;24054;50.128;19.730;2022-12-07T10:28:09;9.45;;;5.65;;
38262;SDS011;24054;50.128;19.730;2022-12-07T10:30:48;9.27;;;5.30;;
38262;SDS011;24054;50.128;19.730;2022-12-07T10:33:27;7.82;;;5.13;;
38262;SDS011;24054;50.128;19.730;2022-12-07T10:36:15;7.07;;;4.88;;
38262;SDS011;24054;50.128;19.730;2022-12-07T10:38:44;8.43;;;4.22;;
38262;SDS011;24054;50.128;19.730;2022-12-07T10:41:12;10.65;;;5.18;;
38262;SDS011;24054;50.128;19.730;2022-12-07T10:43:47;7.57;;;4.50;;
38262;SDS011;24054;50.128;19.730;2022-12-07T10:46:24;9.07;;;4.93;;
38262;SDS011;24054;50.128;19.730;2022-12-07T10:49:03;7.78;;;4.70;;
38262;SDS011;24054;50.128;19.730;2022-12-07T10:51:44;7.78;;;4.65;;
38262;SDS011;24054;50.128;19.730;2022-12-07T10:54:20;8.57;;;4.30;;
38262;SDS011;24054;50.128;19.730;2022-12-07T11:00:04;7.53;;;4.80;;
38262;SDS011;24054;50.128;19.730;2022-12-07T11:02:43;7.85;;;4.60;;
38262;SDS011;24054;50.128;19.730;2022-12-07T11:05:35;9.43;;;4.68;;
38262;SDS011;24054;50.128;19.730;2022-12-07T11:08:11;7.65;;;4.57;;
38262;SDS011;24054;50.128;19.730;2022-12-07T11:10:45;6.65;;;4.10;;
38262;SDS011;24054;50.128;19.730;2022-12-07T11:13:22;7.68;;;4.63;;
38262;SDS011;24054;50.128;19.730;2022-12-07T11:15:59;6.00;;;3.90;;
38262;SDS011;24054;50.128;19.730;2022-12-07T11:18:54;6.78;;;4.63;;
38262;SDS011;24054;50.128;19.730;2022-12-07T11:21:43;7.82;;;4.40;;
38262;SDS011;24054;50.128;19.730;2022-12-07T11:24:19;6.55;;;4.25;;
38262;SDS011;24054;50.128;19.730;2022-12-07T11:26:59;8.05;;;4.38;;
38262;SDS011;24054;50.128;19.730;2022-12-07T11:32:42;6.75;;;4.82;;
38262;SDS011;24054;50.128;19.730;2022-12-07T11:35:18;6.25;;;4.38;;
38262;SDS011;24054;50.128;19.730;2022-12-07T11:37:57;7.22;;;4.63;;
38262;SDS011;24054;50.128;19.730;2022-12-07T11:40:29;7.07;;;4.38;;
38262;SDS011;24054;50.128;19.730;2022-12-07T11:43:02;7.00;;;5.32;;
38262;SDS011;24054;50.128;19.730;2022-12-07T11:45:33;8.55;;;4.47;;
38262;SDS011;24054;50.128;19.730;2022-12-07T11:48:06;8.68;;;5.03;;
38262;SDS011;24054;50.128;19.730;2022-12-07T11:50:41;9.43;;;4.28;;
38262;SDS011;24054;50.128;19.730;2022-12-07T11:53:14;6.60;;;4.72;;
38262;SDS011;24054;50.128;19.730;2022-12-07T11:55:50;6.15;;;4.07;;
38262;SDS011;24054;50.128;19.730;2022-12-07T11:58:35;5.97;;;4.47;;
38262;SDS011;24054;50.128;19.730;2022-12-07T12:01:13;7.05;;;4.57;;
38262;SDS011;24054;50.128;19.730;2022-12-07T12:03:52;6.68;;;4.07;;
38262;SDS011;24054;50.128;19.730;2022-12-07T12:06:22;5.97;;;3.85;;
38262;SDS011;24054;50.128;19.730;2022-12-07T12:08:50;5.13;;;3.50;;
38262;SDS011;24054;50.128;19.730;2022-12-07T12:11:28;5.53;;;3.97;;
38262;SDS011;24054;50.128;19.730;2022-12-07T12:14:13;5.65;;;3.88;;
38262;SDS011;24054;50.128;19.730;2022-12-07T12:20:01;6.15;;;3.72;;
38262;SDS011;24054;50.128;19.730;2022-12-07T12:22:34;7.95;;;4.63;;
38262;SDS011;24054;50.128;19.730;2022-12-07T12:25:05;5.53;;;4.00;;
38262;SDS011;24054;50.128;19.730;2022-12-07T12:27:38;4.72;;;3.47;;
38262;SDS011;24054;50.128;19.730;2022-12-07T12:30:06;5.63;;;4.00;;
38262;SDS011;24054;50.128;19.730;2022-12-07T12:32:51;5.40;;;3.60;;
38262;SDS011;24054;50.128;19.730;2022-12-07T12:35:28;6.85;;;3.17;;
38262;SDS011;24054;50.128;19.730;2022-12-07T12:40:56;5.70;;;3.50;;
38262;SDS011;24054;50.128;19.730;2022-12-07T12:43:46;5.40;;;3.63;;
38262;SDS011;24054;50.128;19.730;2022-12-07T12:58:38;6.03;;;3.42;;
38262;SDS011;24054;50.128;19.730;2022-12-07T13:04:28;3.95;;;3.00;;
38262;SDS011;24054;50.128;19.730;2022-12-07T13:10:28;4.95;;;2.85;;
38262;SDS011;24054;50.128;19.730;2022-12-07T13:13:08;4.93;;;3.03;;
38262;SDS011;24054;50.128;19.730;2022-12-07T13:25:09;4.97;;;3.10;;
38262;SDS011;24054;50.128;19.730;2022-12-07T13:27:39;4.97;;;3.20;;
38262;SDS011;24054;50.128;19.730;2022-12-07T13:30:13;4.20;;;3.28;;
38262;SDS011;24054;50.128;19.730;2022-12-07T13:32:41;3.47;;;2.55;;
38262;SDS011;24054;50.128;19.730;2022-12-07T13:35:29;4.72;;;3.00;;
38262;SDS011;24054;50.128;19.730;2022-12-07T13:37:58;6.68;;;3.08;;
38262;SDS011;24054;50.128;19.730;2022-12-07T13:40:26;4.23;;;3.00;;
38262;SDS011;24054;50.128;19.730;2022-12-07T13:42:56;4.75;;;3.20;;
38262;SDS011;24054;50.128;19.730;2022-12-07T13:45:26;4.85;;;3.28;;
38262;SDS011;24054;50.128;19.730;2022-12-07T13:48:10;4.63;;;2.97;;
38262;SDS011;24054;50.128;19.730;2022-12-07T13:50:42;6.20;;;2.97;;
38262;SDS011;24054;50.128;19.730;2022-12-07T13:53:11;3.17;;;2.40;;
38262;SDS011;24054;50.128;19.730;2022-12-07T13:55:44;4.50;;;2.80;;
38262;SDS011;24054;50.128;19.730;2022-12-07T13:58:12;4.55;;;3.08;;
38262;SDS011;24054;50.128;19.730;2022-12-07T14:00:41;4.82;;;3.10;;
38262;SDS011;24054;50.128;19.730;2022-12-07T14:06:03;4.53;;;2.80;;
38262;SDS011;24054;50.128;19.730;2022-12-07T14:08:50;5.10;;;2.85;;
38262;SDS011;24054;50.128;19.730;2022-12-07T14:11:31;4.18;;;2.75;;
38262;SDS011;24054;50.128;19.730;2022-12-07T14:13:59;3.97;;;2.97;;
38262;SDS011;24054;50.128;19.730;2022-12-07T14:16:30;4.55;;;2.45;;
38262;SDS011;24054;50.128;19.730;2022-12-07T14:19:00;3.85;;;2.72;;
38262;SDS011;24054;50.128;19.730;2022-12-07T14:21:30;4.18;;;2.55;;
38262;SDS011;24054;50.128;19.730;2022-12-07T14:26:46;4.07;;;2.70;;
38262;SDS011;24054;50.128;19.730;2022-12-07T14:29:30;3.33;;;2.33;;
38262;SDS011;24054;50.128;19.730;2022-12-07T14:32:13;3.83;;;2.63;;
38262;SDS011;24054;50.128;19.730;2022-12-07T14:34:53;3.75;;;2.63;;
38262;SDS011;24054;50.128;19.730;2022-12-07T14:37:21;3.90;;;2.58;;
38262;SDS011;24054;50.128;19.730;2022-12-07T14:39:48;3.47;;;2.67;;
38262;SDS011;24054;50.128;19.730;2022-12-07T14:42:15;5.13;;;2.50;;
38262;SDS011;24054;50.128;19.730;2022-12-07T14:44:43;7.43;;;2.88;;
38262;SDS011;24054;50.128;19.730;2022-12-07T14:47:12;5.25;;;2.80;;
38262;SDS011;24054;50.128;19.730;2022-12-07T14:49:39;3.45;;;2.30;;
38262;SDS011;24054;50.128;19.730;2022-12-07T14:52:08;5.25;;;2.70;;
38262;SDS011;24054;50.128;19.730;2022-12-07T14:54:40;4.55;;;2.35;;
38262;SDS011;24054;50.128;19.730;2022-12-07T14:57:08;3.42;;;2.15;;
38262;SDS011;24054;50.128;19.730;2022-12-07T14:59:36;6.05;;;2.97;;
38262;SDS011;24054;50.128;19.730;2022-12-07T15:02:04;5.53;;;2.47;;
38262;SDS011;24054;50.128;19.730;2022-12-07T15:04:33;3.83;;;2.50;;
38262;SDS011;24054;50.128;19.730;2022-12-07T15:07:00;3.55;;;2.17;;
38262;SDS011;24054;50.128;19.730;2022-12-07T15:09:29;4.38;;;2.65;;
38262;SDS011;24054;50.128;19.730;2022-12-07T15:11:56;5.18;;;2.53;;
38262;SDS011;24054;50.128;19.730;2022-12-07T15:14:23;4.78;;;2.33;;
38262;SDS011;24054;50.128;19.730;2022-12-07T15:16:50;4.60;;;2.50;;
38262;SDS011;24054;50.128;19.730;2022-12-07T15:19:18;3.78;;;2.55;;
38262;SDS011;24054;50.128;19.730;2022-12-07T15:21:49;5.00;;;2.40;;
38262;SDS011;24054;50.128;19.730;2022-12-07T15:24:16;3.85;;;2.50;;
38262;SDS011;24054;50.128;19.730;2022-12-07T15:26:43;3.88;;;2.60;;
38262;SDS011;24054;50.128;19.730;2022-12-07T15:29:11;3.97;;;2.50;;
38262;SDS011;24054;50.128;19.730;2022-12-07T15:31:42;4.32;;;2.60;;
38262;SDS011;24054;50.128;19.730;2022-12-07T15:34:10;3.78;;;2.45;;
38262;SDS011;24054;50.128;19.730;2022-12-07T15:36:37;3.95;;;2.50;;
38262;SDS011;24054;50.128;19.730;2022-12-07T15:39:06;3.17;;;2.40;;
38262;SDS011;24054;50.128;19.730;2022-12-07T15:41:34;4.90;;;2.55;;
38262;SDS011;24054;50.128;19.730;2022-12-07T15:44:01;3.83;;;2.58;;
38262;SDS011;24054;50.128;19.730;2022-12-07T15:46:46;4.72;;;2.40;;
38262;SDS011;24054;50.128;19.730;2022-12-07T15:49:14;3.95;;;2.40;;